createdAt,value
2023-03-17T00:01:56.885Z,1.50
2023-03-17T00:04:28.451Z,1.43
2023-03-17T00:06:57.982Z,1.70
2023-03-17T00:09:26.497Z,1.90
2023-03-17T00:11:54.673Z,1.90
2023-03-17T00:14:23.014Z,2.77
2023-03-17T00:16:53.224Z,1.80
2023-03-17T00:19:28.034Z,2.03
2023-03-17T00:21:56.395Z,1.63
2023-03-17T00:24:24.992Z,2.57
2023-03-17T00:26:53.328Z,2.50
2023-03-17T00:29:21.595Z,2.67
2023-03-17T00:31:50.876Z,1.93
2023-03-17T00:34:20.724Z,2.57
2023-03-17T00:36:52.193Z,3.37
2023-03-17T00:39:21.137Z,2.10
2023-03-17T00:41:49.970Z,1.77
2023-03-17T00:44:18.545Z,1.90
2023-03-17T00:46:47.376Z,2.50
2023-03-17T00:49:18.991Z,1.90
2023-03-17T00:51:49.714Z,2.03
2023-03-17T00:54:19.754Z,2.57
2023-03-17T00:56:49.268Z,2.53
2023-03-17T00:59:26.062Z,2.27
2023-03-17T01:01:55.357Z,2.13
2023-03-17T01:04:24.028Z,2.33
2023-03-17T01:06:54.147Z,2.90
2023-03-17T01:09:27.970Z,2.47
2023-03-17T01:11:56.757Z,2.50
2023-03-17T01:14:25.895Z,2.67
2023-03-17T01:16:55.272Z,2.50
2023-03-17T01:19:23.890Z,1.87
2023-03-17T01:21:53.440Z,2.33
2023-03-17T01:24:21.948Z,2.60
2023-03-17T01:26:52.199Z,2.00
2023-03-17T01:29:20.642Z,2.33
2023-03-17T01:31:48.953Z,2.80
2023-03-17T01:34:17.243Z,2.50
2023-03-17T01:36:45.720Z,3.33
2023-03-17T01:39:15.670Z,2.77
2023-03-17T01:41:45.651Z,2.63
2023-03-17T01:44:18.414Z,3.27
2023-03-17T01:46:49.875Z,2.37
2023-03-17T01:49:25.655Z,3.17
2023-03-17T01:52:03.000Z,2.73
2023-03-17T01:54:39.831Z,1.97
2023-03-17T01:57:15.144Z,2.20
2023-03-17T01:59:48.577Z,2.13
2023-03-17T02:02:24.570Z,2.30
2023-03-17T02:04:54.029Z,2.10
2023-03-17T02:07:24.721Z,2.13
2023-03-17T02:09:54.720Z,2.10
2023-03-17T02:12:24.732Z,2.63
2023-03-17T02:14:54.096Z,3.13
2023-03-17T02:17:24.769Z,1.70
2023-03-17T02:19:53.479Z,2.63
2023-03-17T02:22:23.990Z,2.23
2023-03-17T02:24:56.560Z,1.80
2023-03-17T02:27:31.454Z,2.90
2023-03-17T02:29:59.863Z,2.90
2023-03-17T02:32:28.709Z,2.17
2023-03-17T02:34:57.239Z,2.97
2023-03-17T02:37:27.187Z,2.33
2023-03-17T02:39:55.820Z,2.07
2023-03-17T02:42:24.122Z,2.00
2023-03-17T02:44:52.498Z,2.23
2023-03-17T02:47:21.689Z,2.03
2023-03-17T02:49:51.483Z,3.03
2023-03-17T02:52:19.786Z,2.10
2023-03-17T02:54:49.826Z,2.20
2023-03-17T02:57:18.188Z,2.23
2023-03-17T02:59:46.616Z,2.77
2023-03-17T03:02:15.553Z,2.00
2023-03-17T03:04:44.222Z,2.63
2023-03-17T03:07:12.989Z,2.03
2023-03-17T03:09:42.057Z,2.00
2023-03-17T03:12:13.948Z,2.57
2023-03-17T03:14:42.872Z,2.10
2023-03-17T03:17:11.496Z,2.40
2023-03-17T03:19:40.806Z,2.30
2023-03-17T03:22:09.938Z,2.17
2023-03-17T03:24:38.253Z,2.80
2023-03-17T03:27:07.041Z,1.50
2023-03-17T03:29:37.178Z,2.07
2023-03-17T03:32:06.714Z,2.00
2023-03-17T03:34:35.157Z,2.30
2023-03-17T03:37:03.514Z,2.23
2023-03-17T03:39:31.957Z,2.07
2023-03-17T03:42:00.799Z,1.77
2023-03-17T03:44:29.169Z,2.13
2023-03-17T03:46:58.808Z,2.03
2023-03-17T03:49:27.151Z,1.63
2023-03-17T03:51:55.608Z,2.07
2023-03-17T03:54:23.840Z,2.23
2023-03-17T03:56:52.746Z,2.43
2023-03-17T03:59:21.000Z,2.30
2023-03-17T04:01:49.678Z,2.00
2023-03-17T04:04:19.342Z,2.30
2023-03-17T04:06:47.642Z,1.97
2023-03-17T04:09:16.168Z,2.50
2023-03-17T04:11:44.365Z,3.63
2023-03-17T04:14:12.816Z,1.80
2023-03-17T04:16:43.395Z,2.20
2023-03-17T04:19:12.337Z,2.73
2023-03-17T04:21:42.269Z,2.60
2023-03-17T04:24:10.954Z,2.40
2023-03-17T04:26:39.417Z,2.53
2023-03-17T04:29:08.947Z,2.30
2023-03-17T04:31:37.659Z,1.77
2023-03-17T04:34:06.045Z,2.47
2023-03-17T04:36:34.826Z,3.07
2023-03-17T04:39:04.876Z,2.43
2023-03-17T04:41:33.113Z,2.27
2023-03-17T04:44:01.389Z,2.00
2023-03-17T04:46:29.841Z,2.17
2023-03-17T04:48:58.311Z,2.57
2023-03-17T04:51:27.310Z,2.03
2023-03-17T04:53:55.654Z,3.07
2023-03-17T04:56:25.386Z,2.20
2023-03-17T04:58:53.607Z,3.70
2023-03-17T05:01:25.046Z,1.90
2023-03-17T05:03:53.470Z,2.43
2023-03-17T05:06:22.636Z,1.87
2023-03-17T05:08:51.636Z,2.83
2023-03-17T05:11:20.626Z,2.37
2023-03-17T05:13:50.474Z,1.97
2023-03-17T05:16:20.767Z,1.80
2023-03-17T05:18:49.333Z,1.80
2023-03-17T05:21:17.939Z,2.30
2023-03-17T05:23:46.909Z,2.33
2023-03-17T05:26:15.399Z,2.20
2023-03-17T05:28:45.802Z,2.53
2023-03-17T05:31:16.022Z,2.23
2023-03-17T05:33:44.811Z,1.73
2023-03-17T05:36:13.908Z,1.80
2023-03-17T05:38:45.895Z,1.70
2023-03-17T05:41:14.153Z,3.20
2023-03-17T05:43:42.877Z,2.27
2023-03-17T05:46:11.386Z,1.93
2023-03-17T05:48:41.961Z,2.10
2023-03-17T05:51:10.634Z,2.33
2023-03-17T05:53:38.883Z,3.70
2023-03-17T05:56:08.010Z,2.73
2023-03-17T05:58:36.715Z,2.70
2023-03-17T06:01:05.346Z,2.77
2023-03-17T06:03:33.610Z,2.10
2023-03-17T06:06:03.536Z,2.37
2023-03-17T06:08:31.882Z,2.70
2023-03-17T06:11:00.730Z,2.73
2023-03-17T06:13:29.075Z,2.90
2023-03-17T06:15:57.799Z,2.03
2023-03-17T06:18:26.242Z,2.43
2023-03-17T06:20:54.396Z,2.27
2023-03-17T06:23:24.252Z,3.83
2023-03-17T06:25:52.985Z,2.00
2023-03-17T06:28:21.227Z,2.00
2023-03-17T06:30:49.790Z,2.23
2023-03-17T06:33:19.240Z,3.23
2023-03-17T06:35:47.614Z,2.70
2023-03-17T06:38:15.938Z,3.43
2023-03-17T06:40:45.685Z,3.47
2023-03-17T06:43:14.184Z,3.60
2023-03-17T06:45:42.545Z,3.30
2023-03-17T06:48:10.783Z,2.80
2023-03-17T06:50:38.985Z,2.53
2023-03-17T06:53:07.242Z,2.13
2023-03-17T06:55:35.490Z,2.63
2023-03-17T06:58:05.279Z,2.73
2023-03-17T07:00:33.612Z,1.97
2023-03-17T07:03:03.080Z,2.50
2023-03-17T07:05:31.526Z,1.70
2023-03-17T07:08:00.484Z,2.87
2023-03-17T07:10:28.814Z,3.33
2023-03-17T07:12:57.147Z,2.23
2023-03-17T07:15:26.695Z,1.60
2023-03-17T07:17:54.983Z,2.50
2023-03-17T07:20:23.771Z,2.10
2023-03-17T07:22:52.370Z,2.00
2023-03-17T07:25:22.908Z,2.30
2023-03-17T07:27:52.047Z,1.63
2023-03-17T07:30:20.645Z,1.53
2023-03-17T07:32:50.316Z,2.03
2023-03-17T07:35:19.301Z,2.73
2023-03-17T07:37:49.947Z,2.83
2023-03-17T07:40:19.479Z,1.47
2023-03-17T07:42:47.824Z,2.40
2023-03-17T07:45:16.219Z,2.07
2023-03-17T07:47:44.370Z,2.10
2023-03-17T07:50:14.662Z,3.40
2023-03-17T07:52:43.339Z,2.30
2023-03-17T07:55:12.653Z,3.17
2023-03-17T07:57:41.485Z,2.33
2023-03-17T08:00:13.607Z,1.80
2023-03-17T08:02:42.179Z,1.77
2023-03-17T08:05:14.302Z,2.77
2023-03-17T08:07:42.598Z,2.73
2023-03-17T08:10:13.957Z,1.90
2023-03-17T08:12:43.062Z,2.00
2023-03-17T08:15:13.147Z,2.13
2023-03-17T08:17:41.851Z,2.30
2023-03-17T08:20:13.465Z,2.20
2023-03-17T08:22:41.984Z,3.20
2023-03-17T08:25:11.586Z,3.00
2023-03-17T08:27:42.312Z,2.03
2023-03-17T08:30:12.760Z,2.53
2023-03-17T08:32:41.269Z,3.17
2023-03-17T08:35:16.061Z,2.20
2023-03-17T08:37:44.411Z,2.43
2023-03-17T08:40:16.999Z,2.47
2023-03-17T08:42:45.742Z,3.40
2023-03-17T08:45:15.195Z,3.07
2023-03-17T08:47:43.361Z,2.50
2023-03-17T08:50:18.276Z,2.87
2023-03-17T08:52:47.122Z,2.67
2023-03-17T08:55:16.285Z,2.50
2023-03-17T08:57:45.197Z,3.07
2023-03-17T09:00:16.137Z,2.90
2023-03-17T09:02:45.355Z,2.50
2023-03-17T09:05:18.366Z,3.00
2023-03-17T09:07:47.221Z,2.33
2023-03-17T09:10:22.573Z,2.60
2023-03-17T09:12:51.630Z,1.97
2023-03-17T09:15:21.220Z,1.97
2023-03-17T09:17:49.656Z,1.60
2023-03-17T09:20:20.581Z,2.00
2023-03-17T09:22:50.139Z,2.57
2023-03-17T09:25:19.114Z,2.30
2023-03-17T09:27:47.454Z,2.20
2023-03-17T09:30:16.502Z,2.60
2023-03-17T09:32:46.164Z,2.00
2023-03-17T09:35:14.369Z,1.73
2023-03-17T09:37:44.005Z,1.90
2023-03-17T09:40:18.739Z,1.60
2023-03-17T09:42:59.260Z,1.77
2023-03-17T09:45:35.440Z,1.70
2023-03-17T09:48:40.185Z,1.50
2023-03-17T09:51:14.817Z,1.90
2023-03-17T09:53:52.748Z,2.90
2023-03-17T09:56:22.273Z,2.77
2023-03-17T09:58:55.103Z,1.40
2023-03-17T10:01:24.128Z,1.67
2023-03-17T10:03:52.489Z,1.97
2023-03-17T10:06:34.649Z,1.70
2023-03-17T10:09:18.526Z,2.57
2023-03-17T10:11:49.902Z,1.80
2023-03-17T10:14:35.912Z,2.00
2023-03-17T10:17:15.475Z,1.63
2023-03-17T10:19:48.771Z,1.80
2023-03-17T10:22:22.161Z,1.80
2023-03-17T10:24:54.436Z,2.40
2023-03-17T10:27:22.870Z,1.88
2023-03-17T10:29:51.796Z,1.83
2023-03-17T10:32:20.057Z,1.73
2023-03-17T10:34:49.363Z,1.90
2023-03-17T10:37:21.819Z,1.98
2023-03-17T10:39:56.132Z,1.70
2023-03-17T10:42:27.444Z,1.95
2023-03-17T10:44:57.798Z,1.65
2023-03-17T10:47:32.684Z,2.15
2023-03-17T10:50:12.511Z,1.85
2023-03-17T10:52:42.189Z,1.70
2023-03-17T10:55:16.909Z,2.15
2023-03-17T10:57:55.293Z,1.63
2023-03-17T11:00:24.857Z,2.00
2023-03-17T11:02:58.849Z,1.80
2023-03-17T11:05:29.726Z,2.58
2023-03-17T11:08:12.671Z,4.25
2023-03-17T11:10:42.862Z,2.58
2023-03-17T11:13:11.379Z,2.17
2023-03-17T11:15:44.662Z,4.28
2023-03-17T11:18:19.813Z,3.33
2023-03-17T11:20:52.226Z,1.80
2023-03-17T11:23:47.408Z,2.10
2023-03-17T11:26:48.392Z,1.70
2023-03-17T11:29:42.214Z,1.88
2023-03-17T11:32:28.247Z,3.53
2023-03-17T11:35:23.241Z,2.25
2023-03-17T11:38:24.605Z,1.67
2023-03-17T11:41:50.040Z,1.30
2023-03-17T11:44:49.920Z,1.95
2023-03-17T11:47:32.864Z,3.42
2023-03-17T11:50:09.653Z,1.70
2023-03-17T11:52:49.095Z,2.35
2023-03-17T11:55:23.270Z,2.42
2023-03-17T11:58:01.612Z,2.42
2023-03-17T12:00:34.455Z,2.00
2023-03-17T12:03:15.691Z,2.40
2023-03-17T12:05:47.310Z,1.85
2023-03-17T12:08:25.683Z,2.97
2023-03-17T12:10:56.547Z,3.30
2023-03-17T12:13:32.940Z,3.13
2023-03-17T12:16:05.521Z,2.55
2023-03-17T12:18:40.810Z,2.00
2023-03-17T12:21:14.679Z,2.15
2023-03-17T12:23:49.744Z,2.00
2023-03-17T12:26:21.242Z,2.53
2023-03-17T12:28:58.071Z,3.95
2023-03-17T12:31:31.603Z,2.38
2023-03-17T12:34:06.516Z,2.42
2023-03-17T12:36:38.083Z,4.55
2023-03-17T12:39:10.483Z,2.30
2023-03-17T12:42:43.429Z,2.70
2023-03-17T12:45:46.341Z,2.75
2023-03-17T12:48:47.200Z,2.67
2023-03-17T12:51:43.544Z,2.40
2023-03-17T12:54:16.536Z,1.58
2023-03-17T12:56:47.778Z,2.20
2023-03-17T12:59:20.293Z,1.65
2023-03-17T13:01:58.442Z,2.08
2023-03-17T13:04:29.965Z,1.73
2023-03-17T13:07:09.443Z,1.85
2023-03-17T13:09:47.838Z,2.88
2023-03-17T13:13:00.977Z,1.95
2023-03-17T13:15:58.767Z,2.35
2023-03-17T13:19:08.740Z,2.15
2023-03-17T13:21:38.695Z,2.33
2023-03-17T13:24:47.459Z,1.52
2023-03-17T13:27:43.771Z,2.40
2023-03-17T13:30:53.359Z,2.67
2023-03-17T13:33:24.234Z,1.85
2023-03-17T13:36:36.257Z,2.53
2023-03-17T13:39:52.069Z,10.63
2023-03-17T13:42:54.635Z,2.22
2023-03-17T13:45:38.313Z,1.83
2023-03-17T13:48:28.508Z,2.13
2023-03-17T13:51:03.845Z,3.20
2023-03-17T13:53:39.141Z,2.50
2023-03-17T13:56:17.912Z,1.90
2023-03-17T13:58:59.077Z,2.47
2023-03-17T14:01:29.675Z,2.10
2023-03-17T14:03:58.491Z,2.88
2023-03-17T14:06:31.344Z,2.22
2023-03-17T14:09:05.660Z,2.17
2023-03-17T14:11:37.246Z,2.65
2023-03-17T14:14:31.943Z,5.03
2023-03-17T14:17:10.684Z,2.90
2023-03-17T14:19:41.558Z,2.15
2023-03-17T14:22:24.388Z,2.05
2023-03-17T14:24:54.611Z,3.20
2023-03-17T14:27:25.078Z,2.55
2023-03-17T14:29:53.328Z,2.65
2023-03-17T14:32:25.316Z,2.03
2023-03-17T14:34:58.306Z,2.60
2023-03-17T14:37:29.156Z,2.60
2023-03-17T14:39:59.298Z,2.35
2023-03-17T14:42:29.636Z,2.60
2023-03-17T14:45:07.325Z,2.55
2023-03-17T14:47:40.533Z,6.30
2023-03-17T14:50:18.373Z,2.55
2023-03-17T14:52:50.504Z,2.92
2023-03-17T14:55:19.791Z,3.33
2023-03-17T14:57:52.731Z,2.30
2023-03-17T15:00:48.216Z,3.55
2023-03-17T15:03:25.960Z,2.75
2023-03-17T15:06:10.156Z,4.13
2023-03-17T15:08:46.282Z,2.88
2023-03-17T15:11:27.720Z,2.85
2023-03-17T15:14:07.187Z,2.13
2023-03-17T15:16:37.078Z,2.35
2023-03-17T15:19:09.115Z,2.15
2023-03-17T15:21:42.013Z,2.30
2023-03-17T15:24:44.027Z,2.55
2023-03-17T15:27:17.872Z,2.70
2023-03-17T15:29:51.658Z,2.38
2023-03-17T15:32:23.409Z,3.03
2023-03-17T15:34:54.245Z,2.25
2023-03-17T15:37:24.461Z,2.20
2023-03-17T15:39:56.349Z,2.78
2023-03-17T15:42:27.547Z,2.47
2023-03-17T15:44:56.280Z,2.45
2023-03-17T15:47:28.240Z,2.40
2023-03-17T15:50:00.325Z,3.00
2023-03-17T15:52:29.330Z,2.85
2023-03-17T15:55:00.602Z,2.40
2023-03-17T15:57:28.680Z,7.93
2023-03-17T15:59:56.777Z,5.95
2023-03-17T16:02:31.773Z,3.13
2023-03-17T16:05:01.436Z,2.45
2023-03-17T16:07:30.856Z,2.97
2023-03-17T16:10:00.478Z,2.92
2023-03-17T16:12:28.693Z,2.55
2023-03-17T16:14:56.816Z,10.87
2023-03-17T16:17:30.183Z,3.33
2023-03-17T16:19:59.694Z,3.47
2023-03-17T16:22:41.771Z,3.07
2023-03-17T16:25:26.322Z,4.97
2023-03-17T16:27:56.416Z,3.10
2023-03-17T16:30:30.053Z,3.13
2023-03-17T16:33:02.188Z,3.37
2023-03-17T16:35:31.287Z,3.00
2023-03-17T16:37:59.494Z,4.27
2023-03-17T16:40:35.422Z,5.07
2023-03-17T16:43:24.427Z,5.03
2023-03-17T16:45:56.108Z,3.03
2023-03-17T16:48:24.563Z,3.20
2023-03-17T16:50:55.737Z,3.73
2023-03-17T16:53:24.046Z,5.63
2023-03-17T16:55:57.480Z,2.77
2023-03-17T16:58:27.835Z,3.40
2023-03-17T17:01:01.673Z,3.47
2023-03-17T17:03:31.340Z,3.57
2023-03-17T17:05:59.754Z,4.47
2023-03-17T17:08:29.617Z,3.33
2023-03-17T17:10:59.016Z,2.87
2023-03-17T17:13:28.342Z,2.87
2023-03-17T17:15:56.655Z,2.50
2023-03-17T17:18:26.204Z,2.60
2023-03-17T17:20:57.040Z,4.87
2023-03-17T17:23:27.143Z,4.80
2023-03-17T17:25:56.061Z,3.47
2023-03-17T17:28:26.112Z,3.10
2023-03-17T17:30:54.788Z,4.07
2023-03-17T17:33:24.305Z,4.43
2023-03-17T17:35:52.849Z,3.57
2023-03-17T17:38:26.327Z,3.27
2023-03-17T17:40:55.782Z,4.03
2023-03-17T17:43:25.693Z,3.80
2023-03-17T17:45:55.058Z,3.50
2023-03-17T17:48:26.685Z,4.10
2023-03-17T17:50:56.642Z,4.50
2023-03-17T17:53:25.331Z,5.27
2023-03-17T17:55:53.638Z,6.10
2023-03-17T17:58:26.572Z,3.60
2023-03-17T18:00:56.929Z,4.80
2023-03-17T18:03:25.782Z,4.00
2023-03-17T18:05:55.255Z,3.53
2023-03-17T18:08:24.109Z,4.50
2023-03-17T18:10:52.943Z,3.57
2023-03-17T18:13:21.269Z,3.77
2023-03-17T18:15:50.969Z,4.40
2023-03-17T18:18:19.429Z,3.63
2023-03-17T18:20:47.756Z,4.20
2023-03-17T18:23:16.410Z,3.40
2023-03-17T18:25:44.585Z,3.67
2023-03-17T18:28:12.778Z,4.63
2023-03-17T18:30:41.283Z,3.83
2023-03-17T18:33:15.766Z,4.63
2023-03-17T18:35:45.147Z,6.00
2023-03-17T18:38:13.408Z,3.70
2023-03-17T18:40:42.597Z,4.77
2023-03-17T18:43:11.111Z,4.50
2023-03-17T18:45:39.505Z,5.40
2023-03-17T18:48:07.568Z,4.80
2023-03-17T18:50:37.102Z,6.47
2023-03-17T18:53:05.349Z,7.77
2023-03-17T18:55:33.930Z,6.95
2023-03-17T18:58:02.179Z,5.23
2023-03-17T19:00:30.734Z,5.37
2023-03-17T19:02:59.056Z,6.20
2023-03-17T19:05:27.690Z,7.50
2023-03-17T19:07:57.156Z,6.27
2023-03-17T19:10:25.918Z,6.83
2023-03-17T19:12:54.811Z,6.27
2023-03-17T19:15:23.118Z,7.07
2023-03-17T19:17:51.321Z,6.60
2023-03-17T19:20:20.020Z,5.47
2023-03-17T19:22:48.422Z,6.30
2023-03-17T19:25:18.044Z,6.43
2023-03-17T19:27:46.440Z,8.07
2023-03-17T19:30:16.108Z,5.03
2023-03-17T19:32:44.230Z,4.27
2023-03-17T19:35:12.689Z,4.90
2023-03-17T19:37:41.006Z,5.77
2023-03-17T19:40:13.345Z,4.87
2023-03-17T19:42:43.133Z,5.33
2023-03-17T19:45:11.927Z,4.70
2023-03-17T19:47:40.681Z,4.57
2023-03-17T19:50:11.065Z,4.43
2023-03-17T19:52:39.200Z,5.47
2023-03-17T19:55:09.305Z,6.17
2023-03-17T19:57:37.443Z,7.00
2023-03-17T20:00:11.017Z,5.53
2023-03-17T20:02:39.136Z,5.70
2023-03-17T20:05:08.577Z,5.10
2023-03-17T20:07:37.275Z,6.43
2023-03-17T20:10:07.750Z,6.70
2023-03-17T20:12:38.012Z,6.80
2023-03-17T20:15:10.243Z,7.40
2023-03-17T20:17:38.379Z,7.83
2023-03-17T20:20:09.263Z,6.93
2023-03-17T20:22:37.507Z,7.07
2023-03-17T20:25:07.160Z,7.93
2023-03-17T20:27:35.891Z,8.00
2023-03-17T20:30:04.954Z,6.00
2023-03-17T20:32:34.531Z,6.00
2023-03-17T20:35:06.770Z,6.53
2023-03-17T20:37:37.281Z,6.20
2023-03-17T20:40:08.520Z,6.80
2023-03-17T20:42:37.495Z,6.37
2023-03-17T20:45:07.444Z,6.27
2023-03-17T20:47:37.522Z,5.23
2023-03-17T20:50:09.986Z,6.50
2023-03-17T20:52:38.251Z,5.87
2023-03-17T20:55:08.369Z,6.83
2023-03-17T20:57:37.965Z,5.47
2023-03-17T21:00:08.195Z,5.37
2023-03-17T21:02:38.181Z,6.07
2023-03-17T21:05:07.383Z,6.83
2023-03-17T21:07:35.544Z,6.23
2023-03-17T21:10:03.704Z,7.60
2023-03-17T21:12:31.863Z,5.37
2023-03-17T21:15:00.720Z,5.67
2023-03-17T21:17:29.162Z,5.67
2023-03-17T21:19:58.716Z,5.93
2023-03-17T21:22:26.925Z,4.57
2023-03-17T21:24:55.428Z,5.30
2023-03-17T21:27:23.692Z,5.27
2023-03-17T21:29:52.290Z,5.73
2023-03-17T21:32:20.450Z,4.93
2023-03-17T21:34:48.609Z,5.10
2023-03-17T21:37:18.794Z,5.00
2023-03-17T21:39:46.978Z,5.77
2023-03-17T21:42:15.071Z,5.63
2023-03-17T21:44:43.308Z,4.00
2023-03-17T21:47:11.532Z,4.43
2023-03-17T21:49:39.626Z,4.77
2023-03-17T21:52:08.214Z,4.00
2023-03-17T21:54:38.217Z,3.77
2023-03-17T21:57:06.403Z,4.27
2023-03-17T21:59:35.671Z,4.07
2023-03-17T22:02:04.716Z,3.77
2023-03-17T22:04:32.930Z,3.97
2023-03-17T22:07:03.273Z,3.30
2023-03-17T22:09:31.749Z,3.63
2023-03-17T22:12:01.308Z,3.37
2023-03-17T22:14:30.406Z,3.53
2023-03-17T22:16:58.546Z,2.90
2023-03-17T22:19:27.202Z,3.37
2023-03-17T22:21:55.905Z,2.50
2023-03-17T22:24:25.409Z,3.63
2023-03-17T22:26:53.629Z,3.43
2023-03-17T22:29:23.240Z,2.50
2023-03-17T22:31:52.442Z,2.87
2023-03-17T22:34:20.624Z,2.57
2023-03-17T22:36:48.760Z,2.00
2023-03-17T22:39:17.223Z,2.80
2023-03-17T22:41:45.797Z,2.40
2023-03-17T22:44:14.203Z,4.07
2023-03-17T22:46:44.659Z,1.77
2023-03-17T22:49:12.850Z,3.47
2023-03-17T22:51:42.726Z,2.60
2023-03-17T22:54:12.652Z,2.87
2023-03-17T22:56:40.988Z,3.13
2023-03-17T22:59:09.209Z,1.83
2023-03-17T23:01:37.376Z,2.20
2023-03-17T23:04:07.771Z,2.50
2023-03-17T23:06:38.061Z,2.60
2023-03-17T23:09:06.721Z,1.90
2023-03-17T23:11:34.895Z,3.73
2023-03-17T23:14:03.006Z,3.47
2023-03-17T23:16:32.165Z,2.13
2023-03-17T23:19:00.376Z,2.90
2023-03-17T23:21:34.161Z,2.27
2023-03-17T23:24:03.841Z,2.30
2023-03-17T23:26:32.699Z,3.07
2023-03-17T23:29:00.824Z,3.17
2023-03-17T23:31:29.285Z,3.03
2023-03-17T23:34:00.870Z,2.23
2023-03-17T23:36:30.644Z,3.73
2023-03-17T23:38:58.806Z,2.30
2023-03-17T23:41:27.018Z,1.97
2023-03-17T23:43:55.310Z,1.57
2023-03-17T23:46:23.670Z,2.47
2023-03-17T23:48:52.002Z,1.63
2023-03-17T23:51:20.323Z,2.70
2023-03-17T23:53:50.640Z,3.20
2023-03-17T23:56:20.115Z,1.80
2023-03-17T23:58:49.013Z,2.30
